Terminal Aerodrome Forecast
Issued by NWS

Home | Current Version | Previous Version | Text Only | Print | Product List | Glossary On
Versions: 1 2 3 4 5 6 7 8 9 10 11 12 13
000
FTUS43 KICT 222300
TAFSLN
TAF
KSLN 222328Z 2300/2324 21008KT P6SM SCT120
     FM230400 02006KT P6SM BKN080
     FM230600 09006KT P6SM BKN080
     FM231400 09006KT P6SM SCT060=

USA.gov is the U.S. government's official web portal to all federal, state and local government web resources and services.